Manchester, NH

7:16 AM EDT on August 05, 2015 (GMT -0400)
Manchester | | Change Station
CLOSE
Current Station
Airport
Location: Manchester,
Elevation: 233 ft
Nearby Weather Stations

Elev 233 ft 42.93 °N, 71.44 °W | Updated 23 minutes ago

Scattered Clouds
Scattered Clouds
63 °F
Feels Like 63 °F
N
4
Wind Variable Wind from SSW

Today
High -- | Low -- °F
--% Chance of Precip.
Yesterday
High -- | Low -- °F
Precip. -- in
5:40 AM 8:02 PM
Waning Gibbous, 68% visible
Pressure 29.89 in
Visibility 9.0 miles
Clouds Few 11000 ft
Scattered Clouds 25000 ft
Dew Point 56 °F
Humidity 78%
Rainfall 0.00 in
Snow Depth Not available.
UV 0 out of 12
Pollen 6.20 out of 12
Air Quality Not available.
Flu Activity Not available.
METAR KMHT 051053Z 20003KT 9SM FEW110 SCT250 17/13 A2986 RMK AO2 SLP121 T01720133

More Conditions Fewer Conditions

Pressure 29.89 in
Visibility 9.0 miles
Clouds Few 11000 ft
Scattered Clouds 25000 ft
Dew Point 56 °F
Humidity 78%
Rainfall 0.00 in
Snow Depth Not available.
UV 0 out of 12
Pollen 6.20 out of 12
Air Quality Not available.
Flu Activity Not available.
METAR KMHT 051053Z 20003KT 9SM FEW110 SCT250 17/13 A2986 RMK AO2 SLP121 T01720133

More Conditions Fewer Conditions

10-Day Weather Forecast

×

Almanac

Astronomy

Aug. 05, 2015 Rise Set
Actual Time
Civil Twilight
Nautical Twilight
Astronomical Twilight
Moon
Length of Visible Light
Length of Day
Tomorrow will be .
, % of the Moon is Illuminated

Today's Extremes

State Highs State Lows

Community

WunderPhotos

Upload Photos

1,844,125 photos uploaded!

WunderBlogs® & News

Nearby

Air Quality

  Air Quality AQ Index Pollutant
Not available.

Snow Depth

Station Depth Elevation

Earthquake Activity

City Distance Mag. Time & Date
Minimum magnitude displayed is 2.5.

Coastal Water Temperatures

Place Temperature

Stations

Nearby Weather Stations

Station Location Temp. Windchill Dew Point Humidity Wind Precip. Elev Updated Type